createdAt,value
2018-10-12T00:01:16.581Z,59.10
2018-10-12T00:03:45.014Z,59.10
2018-10-12T00:06:13.301Z,59.20
2018-10-12T00:08:41.598Z,59.10
2018-10-12T00:11:09.961Z,59.10
2018-10-12T00:13:38.528Z,59.10
2018-10-12T00:16:06.804Z,59.10
2018-10-12T00:18:35.065Z,59.60
2018-10-12T00:21:13.135Z,59.10
2018-10-12T00:23:41.437Z,59.30
2018-10-12T00:26:09.736Z,59.10
2018-10-12T00:28:38.033Z,59.10
2018-10-12T00:31:06.503Z,59.10
2018-10-12T00:33:34.758Z,59.10
2018-10-12T00:36:03.005Z,59.10
2018-10-12T00:38:31.283Z,59.20
2018-10-12T00:40:59.540Z,59.30
2018-10-12T00:43:27.814Z,59.00
2018-10-12T00:45:56.099Z,59.10
2018-10-12T00:48:24.366Z,59.10
2018-10-12T00:50:52.637Z,59.30
2018-10-12T00:53:20.918Z,59.30
2018-10-12T00:55:49.198Z,59.20
2018-10-12T00:58:17.507Z,59.40
2018-10-12T01:00:45.791Z,59.10
2018-10-12T01:03:14.124Z,59.10
2018-10-12T01:05:42.437Z,59.10
2018-10-12T01:08:10.793Z,59.10
2018-10-12T01:10:39.115Z,59.20
2018-10-12T01:13:07.415Z,59.20
2018-10-12T01:15:35.719Z,59.30
2018-10-12T01:18:04.025Z,59.00
2018-10-12T01:20:32.363Z,59.20
2018-10-12T01:23:00.660Z,59.20
2018-10-12T01:25:28.981Z,59.20
2018-10-12T01:27:57.279Z,59.20
2018-10-12T01:30:25.884Z,59.20
2018-10-12T01:32:59.588Z,59.20
2018-10-12T01:35:27.915Z,59.10
2018-10-12T01:37:56.176Z,59.10
2018-10-12T01:40:24.463Z,59.10
2018-10-12T01:42:52.804Z,59.10
2018-10-12T01:45:21.107Z,59.10
2018-10-12T01:47:49.396Z,59.00
2018-10-12T01:50:17.689Z,59.10
2018-10-12T01:52:45.973Z,59.00
2018-10-12T01:55:14.303Z,58.90
2018-10-12T01:57:42.573Z,58.90
2018-10-12T02:00:10.896Z,59.00
2018-10-12T02:02:39.302Z,59.00
2018-10-12T02:05:08.008Z,59.00
2018-10-12T02:07:36.346Z,59.00
2018-10-12T02:10:04.750Z,58.90
2018-10-12T02:12:33.011Z,58.90
2018-10-12T02:15:01.297Z,58.90
2018-10-12T02:17:29.557Z,58.90
2018-10-12T02:19:57.873Z,59.00
2018-10-12T02:22:26.209Z,58.90
2018-10-12T02:24:54.548Z,59.00
2018-10-12T02:27:22.798Z,58.90
2018-10-12T02:29:51.186Z,58.90
2018-10-12T02:32:19.497Z,58.90
2018-10-12T02:34:47.752Z,58.90
2018-10-12T02:37:16.037Z,59.50
2018-10-12T02:39:44.318Z,58.90
2018-10-12T02:42:12.612Z,58.90
2018-10-12T02:44:40.931Z,59.00
2018-10-12T02:47:09.189Z,59.00
2018-10-12T02:49:37.498Z,59.00
2018-10-12T02:52:05.761Z,58.90
2018-10-12T02:54:34.023Z,59.30
2018-10-12T02:57:02.338Z,58.90
2018-10-12T02:59:30.604Z,58.90
2018-10-12T03:01:58.923Z,58.90
2018-10-12T03:04:27.178Z,58.90
2018-10-12T03:06:55.454Z,58.90
2018-10-12T03:09:23.741Z,58.90
2018-10-12T03:11:52.000Z,58.90
2018-10-12T03:14:20.261Z,58.90
2018-10-12T03:16:48.561Z,58.90
2018-10-12T03:19:16.862Z,58.90
2018-10-12T03:21:45.147Z,59.40
2018-10-12T03:24:13.405Z,58.90
2018-10-12T03:26:41.733Z,58.90
2018-10-12T03:29:09.970Z,58.90
2018-10-12T03:31:38.254Z,58.80
2018-10-12T03:34:06.594Z,58.90
2018-10-12T03:36:34.940Z,59.00
2018-10-12T03:39:03.510Z,58.80
2018-10-12T03:41:31.799Z,58.80
2018-10-12T03:44:00.067Z,58.80
2018-10-12T03:46:28.342Z,58.80
2018-10-12T03:48:56.646Z,58.80
2018-10-12T03:51:24.930Z,58.90
2018-10-12T03:53:53.228Z,58.80
2018-10-12T03:56:21.518Z,58.70
2018-10-12T03:58:49.812Z,58.80
2018-10-12T04:01:18.101Z,58.80
2018-10-12T04:03:46.391Z,58.80
2018-10-12T04:06:14.676Z,58.80
2018-10-12T04:08:42.971Z,58.80
2018-10-12T04:11:11.248Z,58.80
2018-10-12T04:13:39.534Z,59.30
2018-10-12T04:16:07.823Z,58.70
2018-10-12T04:18:36.065Z,58.80
2018-10-12T04:21:04.333Z,58.80
2018-10-12T04:23:32.668Z,58.80
2018-10-12T04:26:00.993Z,58.70
2018-10-12T04:28:29.585Z,58.70
2018-10-12T04:30:57.881Z,58.80
2018-10-12T04:33:26.188Z,58.70
2018-10-12T04:35:54.536Z,58.70
2018-10-12T04:38:22.900Z,58.70
2018-10-12T04:41:01.717Z,58.70
2018-10-12T04:43:30.618Z,59.20
2018-10-12T04:45:59.482Z,58.70
2018-10-12T04:48:27.960Z,58.70
2018-10-12T04:50:56.513Z,58.70
2018-10-12T04:53:25.065Z,58.70
2018-10-12T04:55:53.740Z,58.70
2018-10-12T04:58:22.041Z,58.70
2018-10-12T05:00:50.684Z,58.70
2018-10-12T05:03:18.953Z,58.70
2018-10-12T05:05:47.240Z,58.70
2018-10-12T05:08:15.618Z,58.70
2018-10-12T05:10:43.901Z,58.70
2018-10-12T05:13:12.203Z,58.70
2018-10-12T05:18:15.625Z,58.70
2018-10-12T05:20:45.967Z,58.60
2018-10-12T05:23:14.285Z,58.60
2018-10-12T05:25:42.913Z,58.50
2018-10-12T05:28:11.186Z,58.60
2018-10-12T05:30:39.516Z,58.60
2018-10-12T05:33:07.827Z,58.60
2018-10-12T05:35:36.120Z,58.60
2018-10-12T05:38:04.678Z,58.60
2018-10-12T05:40:33.017Z,58.70
2018-10-12T05:43:01.810Z,58.50
2018-10-12T05:45:30.069Z,58.50
2018-10-12T05:48:09.793Z,58.50
2018-10-12T05:50:38.078Z,58.50
2018-10-12T05:53:06.610Z,58.60
2018-10-12T05:55:34.933Z,58.60
2018-10-12T05:58:03.309Z,58.60
2018-10-12T06:00:31.602Z,58.50
2018-10-12T06:02:59.897Z,58.50
2018-10-12T06:05:28.364Z,58.50
2018-10-12T06:07:56.678Z,58.50
2018-10-12T06:10:24.967Z,58.50
2018-10-12T06:12:53.253Z,58.50
2018-10-12T06:15:21.590Z,58.50
2018-10-12T06:17:49.873Z,58.40
2018-10-12T06:20:18.165Z,58.50
2018-10-12T06:22:46.465Z,58.40
2018-10-12T06:25:14.721Z,58.30
2018-10-12T06:27:43.047Z,58.40
2018-10-12T06:30:11.371Z,58.40
2018-10-12T06:32:39.645Z,58.30
2018-10-12T06:35:07.869Z,58.20
2018-10-12T06:37:36.154Z,58.20
2018-10-12T06:40:04.825Z,58.30
2018-10-12T06:42:33.092Z,58.30
2018-10-12T06:45:01.583Z,58.80
2018-10-12T06:47:30.064Z,58.20
2018-10-12T06:49:58.364Z,58.10
2018-10-12T06:52:26.643Z,58.20
2018-10-12T06:54:54.941Z,58.20
2018-10-12T06:57:23.210Z,60.20
2018-10-12T06:59:51.574Z,61.90
2018-10-12T07:02:20.558Z,61.60
2018-10-12T07:04:49.989Z,61.00
2018-10-12T07:07:18.459Z,60.60
2018-10-12T07:09:46.853Z,60.40
2018-10-12T07:12:15.524Z,60.00
2018-10-12T07:14:44.039Z,59.80
2018-10-12T07:17:12.361Z,59.60
2018-10-12T07:19:40.733Z,59.40
2018-10-12T07:22:08.943Z,59.20
2018-10-12T07:24:37.231Z,59.30
2018-10-12T07:27:05.793Z,59.20
2018-10-12T07:29:34.129Z,59.10
2018-10-12T07:32:02.420Z,58.80
2018-10-12T07:34:30.749Z,58.70
2018-10-12T07:36:59.055Z,58.60
2018-10-12T07:39:27.294Z,58.70
2018-10-12T07:41:55.581Z,58.70
2018-10-12T07:44:23.882Z,58.70
2018-10-12T07:46:52.195Z,58.50
2018-10-12T07:49:20.485Z,58.40
2018-10-12T07:51:48.761Z,58.40
2018-10-12T07:54:17.045Z,58.30
2018-10-12T07:56:45.301Z,58.30
2018-10-12T07:59:13.606Z,58.20
2018-10-12T08:01:41.989Z,57.90
2018-10-12T08:04:10.262Z,59.10
2018-10-12T08:06:38.586Z,58.10
2018-10-12T08:09:07.703Z,57.90
2018-10-12T08:11:36.424Z,57.70
2018-10-12T08:14:04.771Z,57.60
2018-10-12T08:16:33.033Z,57.40
2018-10-12T08:19:01.357Z,57.40
2018-10-12T08:21:30.325Z,57.40
2018-10-12T08:23:58.620Z,57.20
2018-10-12T08:26:26.946Z,57.30
2018-10-12T08:28:55.226Z,56.90
2018-10-12T08:31:23.537Z,56.80
2018-10-12T08:33:51.796Z,56.80
2018-10-12T08:36:20.132Z,56.80
2018-10-12T08:38:48.363Z,57.30
2018-10-12T08:41:16.629Z,56.80
2018-10-12T08:43:44.931Z,57.50
2018-10-12T08:46:13.210Z,56.80
2018-10-12T08:48:41.484Z,56.50
2018-10-12T08:51:09.784Z,56.70
2018-10-12T08:53:38.094Z,57.00
2018-10-12T08:56:06.590Z,59.00
2018-10-12T08:58:34.846Z,58.30
2018-10-12T09:01:03.113Z,59.60
2018-10-12T09:03:31.377Z,58.50
2018-10-12T09:05:59.658Z,57.50
2018-10-12T09:08:27.956Z,58.30
2018-10-12T09:10:56.355Z,56.70
2018-10-12T09:13:24.633Z,57.20
2018-10-12T09:15:52.909Z,57.20
2018-10-12T09:18:21.192Z,56.80
2018-10-12T09:20:49.592Z,56.40
2018-10-12T09:23:17.832Z,56.30
2018-10-12T09:25:46.214Z,56.40
2018-10-12T09:28:14.543Z,56.60
2018-10-12T09:30:42.985Z,55.90
2018-10-12T09:33:11.283Z,55.90
2018-10-12T09:35:39.521Z,55.80
2018-10-12T09:38:07.816Z,55.90
2018-10-12T09:40:36.410Z,55.40
2018-10-12T09:43:04.792Z,56.00
2018-10-12T09:45:32.986Z,56.10
2018-10-12T09:48:01.245Z,55.50
2018-10-12T09:50:29.638Z,55.20
2018-10-12T09:52:57.790Z,55.40
2018-10-12T09:55:26.104Z,54.90
2018-10-12T09:57:54.440Z,54.90
2018-10-12T10:00:28.148Z,54.70
2018-10-12T10:03:01.933Z,54.40
2018-10-12T10:05:30.600Z,54.40
2018-10-12T10:07:59.060Z,54.30
2018-10-12T10:10:27.237Z,54.20
2018-10-12T10:12:55.560Z,54.00
2018-10-12T10:15:24.045Z,54.00
2018-10-12T10:17:52.112Z,53.80
2018-10-12T10:20:20.365Z,53.60
2018-10-12T10:22:48.637Z,52.90
2018-10-12T10:25:16.944Z,54.00
2018-10-12T10:27:45.232Z,52.40
2018-10-12T10:30:13.510Z,53.40
2018-10-12T10:32:41.821Z,52.30
2018-10-12T10:35:10.099Z,52.10
2018-10-12T10:37:38.426Z,51.90
2018-10-12T10:40:06.704Z,48.90
2018-10-12T10:42:35.026Z,50.00
2018-10-12T10:45:03.322Z,50.30
2018-10-12T10:47:31.656Z,49.60
2018-10-12T10:49:59.989Z,50.40
2018-10-12T10:52:28.287Z,50.30
2018-10-12T10:54:56.537Z,50.00
2018-10-12T10:57:24.806Z,49.70
2018-10-12T10:59:53.056Z,49.10
2018-10-12T11:02:21.593Z,49.10
2018-10-12T11:04:49.868Z,48.50
2018-10-12T11:07:18.148Z,49.90
2018-10-12T11:09:46.402Z,47.90
2018-10-12T11:12:14.697Z,49.90
2018-10-12T11:14:42.939Z,48.70
2018-10-12T11:17:11.212Z,48.10
2018-10-12T11:19:39.554Z,49.20
2018-10-12T11:22:07.776Z,47.50
2018-10-12T11:24:36.091Z,48.40
2018-10-12T11:27:04.319Z,49.10
2018-10-12T11:29:32.603Z,48.30
2018-10-12T11:32:00.876Z,49.30
2018-10-12T11:34:29.171Z,48.10
2018-10-12T11:36:57.587Z,48.90
2018-10-12T11:39:25.898Z,49.00
2018-10-12T11:41:54.187Z,48.20
2018-10-12T11:44:22.486Z,46.70
2018-10-12T11:46:50.792Z,48.20
2018-10-12T11:49:19.077Z,49.00
2018-10-12T11:51:47.318Z,48.80
2018-10-12T11:54:15.581Z,48.70
2018-10-12T11:56:43.856Z,48.50
2018-10-12T11:59:12.120Z,48.40
2018-10-12T12:01:40.437Z,48.50
2018-10-12T12:04:08.892Z,47.60
2018-10-12T12:06:37.184Z,48.30
2018-10-12T12:09:06.433Z,42.80
2018-10-12T12:11:34.737Z,48.60
2018-10-12T12:14:03.052Z,48.60
2018-10-12T12:16:31.361Z,48.60
2018-10-12T12:18:59.696Z,46.70
2018-10-12T12:21:27.990Z,47.60
2018-10-12T12:23:56.265Z,48.30
2018-10-12T12:26:24.597Z,48.80
2018-10-12T12:28:52.930Z,48.50
2018-10-12T12:31:21.219Z,47.40
2018-10-12T12:33:49.499Z,47.90
2018-10-12T12:36:17.872Z,46.80
2018-10-12T12:38:46.081Z,48.70
2018-10-12T12:41:14.389Z,48.90
2018-10-12T12:43:43.774Z,48.00
2018-10-12T12:46:12.058Z,44.80
2018-10-12T12:48:40.961Z,48.70
2018-10-12T12:51:09.893Z,46.80
2018-10-12T12:53:38.197Z,46.40
2018-10-12T12:56:06.516Z,48.70
2018-10-12T12:58:34.784Z,48.40
2018-10-12T13:01:03.070Z,48.70
2018-10-12T13:03:31.352Z,45.30
2018-10-12T13:05:59.595Z,45.30
2018-10-12T13:08:27.881Z,48.50
2018-10-12T13:10:56.234Z,48.70
2018-10-12T13:13:24.511Z,48.40
2018-10-12T13:15:52.829Z,44.60
2018-10-12T13:18:21.056Z,48.50
2018-10-12T13:20:49.364Z,48.40
2018-10-12T13:23:17.733Z,48.10
2018-10-12T13:25:46.068Z,47.60
2018-10-12T13:28:14.285Z,47.90
2018-10-12T13:30:42.580Z,43.00
2018-10-12T13:33:10.861Z,45.80
2018-10-12T13:35:39.214Z,46.60
2018-10-12T13:38:07.494Z,48.10
2018-10-12T13:40:35.771Z,47.50
2018-10-12T13:43:04.105Z,46.00
2018-10-12T13:45:32.358Z,47.70
2018-10-12T13:48:00.633Z,47.50
2018-10-12T13:50:28.953Z,46.90
2018-10-12T13:52:57.212Z,46.20
2018-10-12T13:55:25.517Z,46.60
2018-10-12T13:57:53.781Z,46.00
2018-10-12T14:00:22.418Z,47.60
2018-10-12T14:02:50.657Z,48.10
2018-10-12T14:05:18.952Z,47.80
2018-10-12T14:07:48.163Z,47.90
2018-10-12T14:10:16.459Z,47.80
2018-10-12T14:12:44.713Z,46.90
2018-10-12T14:15:13.142Z,48.10
2018-10-12T14:17:41.451Z,44.60
2018-10-12T14:20:09.887Z,46.70
2018-10-12T14:22:38.243Z,47.90
2018-10-12T14:25:06.919Z,47.20
2018-10-12T14:27:35.128Z,46.90
2018-10-12T14:30:04.125Z,47.60
2018-10-12T14:32:32.526Z,47.80
2018-10-12T14:35:00.841Z,47.80
2018-10-12T14:37:29.129Z,47.80
2018-10-12T14:39:57.423Z,47.60
2018-10-12T14:42:25.708Z,47.00
2018-10-12T14:44:54.158Z,48.00
2018-10-12T14:47:22.382Z,48.10
2018-10-12T14:49:50.693Z,48.20
2018-10-12T14:52:18.969Z,46.30
2018-10-12T14:54:47.309Z,47.10
2018-10-12T14:57:19.762Z,48.20
2018-10-12T14:59:49.374Z,47.80
2018-10-12T15:02:18.481Z,47.90
2018-10-12T15:04:46.848Z,48.20
2018-10-12T15:07:15.166Z,49.50
2018-10-12T15:09:43.471Z,48.60
2018-10-12T15:12:11.753Z,48.20
2018-10-12T15:14:51.169Z,48.70
2018-10-12T15:17:19.432Z,48.10
2018-10-12T15:19:47.720Z,47.50
2018-10-12T15:22:16.033Z,48.60
2018-10-12T15:24:44.305Z,48.60
2018-10-12T15:27:12.597Z,48.70
2018-10-12T15:29:40.873Z,47.90
2018-10-12T15:32:09.163Z,48.50
2018-10-12T15:34:37.608Z,48.60
2018-10-12T15:37:05.930Z,48.80
2018-10-12T15:39:34.165Z,48.40
2018-10-12T15:42:02.473Z,49.30
2018-10-12T15:44:31.090Z,49.20
2018-10-12T15:46:59.393Z,49.10
2018-10-12T15:49:28.078Z,49.30
2018-10-12T15:51:56.419Z,48.90
2018-10-12T15:54:24.686Z,49.40
2018-10-12T15:56:52.987Z,49.30
2018-10-12T15:59:21.241Z,49.30
2018-10-12T16:01:49.540Z,49.40
2018-10-12T16:04:17.820Z,49.40
2018-10-12T16:06:46.161Z,49.30
2018-10-12T16:09:14.485Z,49.40
2018-10-12T16:11:42.809Z,49.40
2018-10-12T16:14:11.130Z,49.50
2018-10-12T16:16:39.406Z,49.50
2018-10-12T16:19:07.683Z,49.60
2018-10-12T16:21:35.978Z,49.50
2018-10-12T16:24:09.081Z,49.50
2018-10-12T16:26:37.383Z,49.50
2018-10-12T16:29:05.930Z,49.50
2018-10-12T16:31:34.174Z,49.60
2018-10-12T16:34:02.437Z,49.60
2018-10-12T16:36:30.724Z,49.70
2018-10-12T16:38:59.027Z,49.70
2018-10-12T16:41:27.340Z,49.60
2018-10-12T16:43:55.662Z,49.60
2018-10-12T16:46:23.994Z,49.70
2018-10-12T16:48:52.346Z,49.70
2018-10-12T16:51:20.549Z,49.80
2018-10-12T16:53:48.840Z,49.80
2018-10-12T16:56:17.127Z,49.80
2018-10-12T16:58:45.451Z,49.80
2018-10-12T17:01:13.750Z,49.70
2018-10-12T17:03:42.019Z,49.70
2018-10-12T17:06:10.340Z,49.70
2018-10-12T17:08:38.629Z,49.80
2018-10-12T17:11:07.182Z,49.90
2018-10-12T17:13:35.462Z,49.90
2018-10-12T17:16:03.758Z,50.00
2018-10-12T17:18:32.090Z,50.50
2018-10-12T17:21:00.326Z,50.00
2018-10-12T17:23:28.601Z,49.90
2018-10-12T17:25:56.918Z,49.90
2018-10-12T17:28:25.221Z,49.90
2018-10-12T17:30:53.529Z,49.90
2018-10-12T17:33:21.784Z,50.00
2018-10-12T17:35:50.097Z,50.10
2018-10-12T17:38:18.355Z,50.10
2018-10-12T17:40:46.655Z,50.00
2018-10-12T17:43:14.893Z,50.00
2018-10-12T17:45:43.236Z,50.00
2018-10-12T17:48:11.498Z,50.40
2018-10-12T17:50:39.796Z,49.50
2018-10-12T17:53:08.070Z,50.30
2018-10-12T17:55:36.361Z,50.10
2018-10-12T17:58:04.634Z,50.30
2018-10-12T18:00:33.002Z,50.00
2018-10-12T18:03:01.262Z,50.10
2018-10-12T18:05:29.565Z,50.00
2018-10-12T18:07:58.023Z,49.90
2018-10-12T18:10:26.302Z,49.80
2018-10-12T18:12:54.565Z,49.70
2018-10-12T18:15:23.013Z,49.60
2018-10-12T18:17:51.286Z,49.40
2018-10-12T18:20:19.572Z,49.40
2018-10-12T18:22:48.110Z,49.40
2018-10-12T18:25:16.407Z,49.30
2018-10-12T18:27:44.750Z,49.20
2018-10-12T18:30:13.061Z,49.20
2018-10-12T18:32:41.545Z,49.20
2018-10-12T18:35:09.861Z,49.20
2018-10-12T18:37:38.139Z,49.10
2018-10-12T18:40:06.393Z,49.10
2018-10-12T18:42:34.677Z,49.10
2018-10-12T18:45:03.058Z,49.10
2018-10-12T18:47:31.346Z,49.10
2018-10-12T18:49:59.616Z,49.00
2018-10-12T18:52:27.933Z,49.00
2018-10-12T18:54:56.220Z,49.00
2018-10-12T18:57:24.513Z,49.70
2018-10-12T18:59:52.876Z,49.10
2018-10-12T19:02:21.193Z,49.10
2018-10-12T19:04:49.480Z,49.20
2018-10-12T19:07:17.757Z,49.20
2018-10-12T19:09:46.060Z,49.20
2018-10-12T19:12:14.361Z,49.80
2018-10-12T19:14:42.617Z,49.20
2018-10-12T19:17:11.017Z,49.20
2018-10-12T19:19:39.469Z,49.10
2018-10-12T19:22:07.834Z,49.20
2018-10-12T19:24:36.122Z,49.30
2018-10-12T19:27:04.397Z,49.90
2018-10-12T19:29:32.685Z,49.30
2018-10-12T19:32:01.010Z,49.30
2018-10-12T19:34:29.310Z,49.30
2018-10-12T19:36:57.620Z,49.30
2018-10-12T19:39:25.921Z,49.40
2018-10-12T19:41:54.222Z,49.40
2018-10-12T19:44:22.514Z,49.40
2018-10-12T19:46:50.798Z,49.40
2018-10-12T19:49:19.082Z,49.40
2018-10-12T19:51:47.404Z,49.40
2018-10-12T19:54:15.685Z,49.40
2018-10-12T19:56:43.961Z,49.50
2018-10-12T19:59:12.305Z,49.50
2018-10-12T20:01:40.950Z,49.50
2018-10-12T20:04:09.238Z,49.50
2018-10-12T20:06:37.522Z,49.60
2018-10-12T20:09:08.805Z,49.50
2018-10-12T20:11:37.181Z,49.60
2018-10-12T20:14:05.541Z,49.60
2018-10-12T20:16:33.814Z,49.70
2018-10-12T20:19:02.079Z,49.60
2018-10-12T20:21:30.585Z,49.70
2018-10-12T20:23:58.963Z,49.80
2018-10-12T20:26:27.199Z,49.70
2018-10-12T20:28:55.509Z,50.10
2018-10-12T20:31:24.045Z,49.80
2018-10-12T20:33:52.329Z,49.70
2018-10-12T20:36:20.669Z,49.70
2018-10-12T20:38:48.933Z,49.70
2018-10-12T20:41:17.205Z,49.80
2018-10-12T20:43:45.504Z,49.80
2018-10-12T20:46:13.793Z,49.80
2018-10-12T20:48:42.069Z,49.80
2018-10-12T20:51:10.355Z,49.20
2018-10-12T20:53:38.701Z,51.00
2018-10-12T20:56:07.207Z,52.80
2018-10-12T20:58:35.437Z,52.30
2018-10-12T21:01:03.770Z,51.40
2018-10-12T21:03:32.041Z,50.80
2018-10-12T21:06:00.352Z,50.40
2018-10-12T21:08:28.646Z,50.30
2018-10-12T21:10:56.946Z,50.20
2018-10-12T21:13:25.273Z,50.10
2018-10-12T21:15:53.577Z,50.10
2018-10-12T21:18:21.873Z,50.10
2018-10-12T21:20:50.148Z,50.10
2018-10-12T21:23:18.421Z,50.00
2018-10-12T21:25:46.729Z,50.00
2018-10-12T21:28:15.117Z,50.00
2018-10-12T21:30:43.333Z,50.00
2018-10-12T21:33:11.625Z,50.00
2018-10-12T21:35:39.897Z,50.10
2018-10-12T21:38:08.221Z,50.20
2018-10-12T21:40:36.502Z,50.00
2018-10-12T21:43:04.922Z,50.10
2018-10-12T21:45:33.199Z,50.10
2018-10-12T21:48:01.492Z,50.10
2018-10-12T21:50:29.818Z,50.10
2018-10-12T21:52:58.073Z,50.10
2018-10-12T21:55:26.353Z,50.20
2018-10-12T21:57:54.658Z,50.30
2018-10-12T22:00:22.935Z,50.30
2018-10-12T22:02:51.233Z,50.20
2018-10-12T22:05:19.530Z,50.10
2018-10-12T22:07:47.786Z,50.20
2018-10-12T22:10:16.061Z,50.10
2018-10-12T22:12:44.381Z,50.30
2018-10-12T22:15:12.757Z,50.30
2018-10-12T22:17:41.091Z,50.30
2018-10-12T22:20:09.390Z,50.30
2018-10-12T22:22:37.641Z,50.30
2018-10-12T22:25:06.074Z,50.40
2018-10-12T22:27:34.373Z,50.30
2018-10-12T22:30:02.662Z,50.40
2018-10-12T22:32:30.945Z,50.40
2018-10-12T22:34:59.247Z,50.50
2018-10-12T22:37:27.513Z,50.40
2018-10-12T22:39:55.767Z,50.40
2018-10-12T22:42:24.045Z,50.40
2018-10-12T22:44:52.288Z,50.70
2018-10-12T22:47:20.601Z,50.30
2018-10-12T22:49:48.926Z,50.50
2018-10-12T22:52:17.185Z,50.50
2018-10-12T22:54:45.482Z,50.50
2018-10-12T22:57:13.709Z,50.40
2018-10-12T22:59:41.994Z,50.40
2018-10-12T23:02:10.247Z,50.40
2018-10-12T23:04:38.736Z,50.50
2018-10-12T23:07:07.008Z,51.10
2018-10-12T23:09:35.290Z,51.10
2018-10-12T23:12:03.569Z,50.60
2018-10-12T23:14:31.837Z,50.60
2018-10-12T23:17:00.138Z,50.50
2018-10-12T23:19:28.430Z,50.40
2018-10-12T23:21:56.721Z,50.50
2018-10-12T23:24:24.985Z,50.50
2018-10-12T23:26:53.266Z,50.50
2018-10-12T23:29:21.537Z,50.50
2018-10-12T23:31:49.810Z,50.60
2018-10-12T23:34:18.098Z,50.60
2018-10-12T23:36:46.401Z,50.60
2018-10-12T23:39:14.733Z,50.60
2018-10-12T23:41:43.069Z,51.20
2018-10-12T23:44:11.349Z,50.70
2018-10-12T23:46:39.637Z,50.60
2018-10-12T23:49:07.893Z,50.60
2018-10-12T23:51:36.215Z,50.60
2018-10-12T23:54:04.501Z,50.70
2018-10-12T23:56:32.769Z,50.70
2018-10-12T23:59:01.051Z,50.70
